createdAt,value
2018-09-14T06:51:49.618Z,1153.12
2018-09-14T06:52:49.610Z,765.00
2018-09-14T06:53:49.580Z,1085.62
2018-09-14T06:54:49.564Z,770.62
2018-09-14T06:55:49.556Z,978.75
2018-09-14T06:56:49.547Z,714.38
2018-09-14T06:57:49.548Z,995.62
2018-09-14T06:58:49.512Z,686.25
2018-09-14T06:59:49.509Z,1096.88
2018-09-14T07:00:49.494Z,1209.38
2018-09-14T07:01:49.487Z,1333.12
2018-09-14T07:02:49.505Z,1001.25
2018-09-14T07:03:49.461Z,855.00
2018-09-14T07:04:49.446Z,1102.50
2018-09-14T07:05:49.438Z,1726.88
2018-09-14T07:06:49.428Z,1631.25
2018-09-14T07:07:49.412Z,1479.38
2018-09-14T07:08:49.428Z,1254.38
2018-09-14T07:09:49.383Z,1530.00
2018-09-14T07:10:49.376Z,1608.75
2018-09-14T07:11:49.361Z,1580.62
2018-09-14T07:12:49.351Z,1440.00
2018-09-14T07:13:49.365Z,1496.25
2018-09-14T07:14:49.333Z,1603.12
2018-09-14T07:15:49.314Z,1586.25
2018-09-14T07:16:49.303Z,1518.75
2018-09-14T07:17:49.288Z,1485.00
2018-09-14T07:18:49.299Z,1428.75
2018-09-14T07:19:49.267Z,1417.50
2018-09-14T07:20:49.260Z,1417.50
2018-09-14T07:21:49.253Z,1501.88
2018-09-14T07:22:49.229Z,1518.75
2018-09-14T07:23:49.249Z,1496.25
2018-09-14T07:24:49.424Z,1445.62
2018-09-14T07:25:49.217Z,1400.62
2018-09-14T07:26:49.191Z,1440.00
2018-09-14T07:27:49.184Z,1546.88
2018-09-14T07:28:49.276Z,1479.38
2018-09-14T07:29:49.176Z,1378.12
2018-09-14T07:30:49.134Z,1400.62
2018-09-14T07:31:49.145Z,1473.75
2018-09-14T07:32:49.129Z,1366.88
2018-09-14T07:33:49.107Z,1411.88
2018-09-14T07:34:49.115Z,1788.75
2018-09-14T07:35:49.083Z,1687.50
2018-09-14T07:36:49.074Z,1293.75
2018-09-14T07:37:49.057Z,1265.62
2018-09-14T07:38:49.049Z,1350.00
2018-09-14T07:39:49.051Z,1321.88
2018-09-14T07:40:49.021Z,1299.38
2018-09-14T07:41:49.012Z,1366.88
2018-09-14T07:42:48.993Z,1417.50
2018-09-14T07:43:48.992Z,1496.25
2018-09-14T07:44:48.999Z,1423.12
2018-09-14T07:45:48.962Z,1333.12
2018-09-14T07:46:48.952Z,1395.00
2018-09-14T07:47:48.942Z,1350.00
2018-09-14T07:48:48.926Z,1327.50
2018-09-14T07:49:48.934Z,1333.12
2018-09-14T07:50:48.906Z,1299.38
2018-09-14T07:51:48.896Z,1355.62
2018-09-14T07:52:48.883Z,1361.25
2018-09-14T07:53:48.868Z,1395.00
2018-09-14T07:54:48.887Z,1316.25
2018-09-14T07:55:48.844Z,1243.12
2018-09-14T07:56:48.835Z,1316.25
2018-09-14T07:57:48.821Z,1423.12
2018-09-14T07:58:48.810Z,1411.88
2018-09-14T07:59:48.801Z,1428.75
2018-09-14T08:00:48.810Z,1406.25
2018-09-14T08:01:48.779Z,1417.50
2018-09-14T08:02:48.766Z,1395.00
2018-09-14T08:03:48.758Z,1462.50
2018-09-14T08:04:48.744Z,1676.25
2018-09-14T08:05:48.758Z,1665.00
2018-09-14T08:06:48.723Z,1580.62
2018-09-14T08:07:48.710Z,1614.38
2018-09-14T08:08:48.697Z,1597.50
2018-09-14T08:09:48.684Z,1546.88
2018-09-14T08:10:48.697Z,1563.75
2018-09-14T08:11:48.663Z,1580.62
2018-09-14T08:12:48.647Z,1518.75
2018-09-14T08:13:48.638Z,1479.38
2018-09-14T08:14:48.621Z,1445.62
2018-09-14T08:15:48.647Z,1473.75
2018-09-14T08:16:48.605Z,1524.38
2018-09-14T08:17:48.588Z,1518.75
2018-09-14T08:18:48.582Z,1653.75
2018-09-14T08:19:48.565Z,1805.62
2018-09-14T08:20:48.555Z,1681.88
2018-09-14T08:21:48.676Z,1524.38
2018-09-14T08:22:48.528Z,1546.88
2018-09-14T08:23:48.526Z,1681.88
2018-09-14T08:24:48.506Z,1743.75
2018-09-14T08:25:48.503Z,1771.88
2018-09-14T08:26:48.535Z,1805.62
2018-09-14T08:27:48.473Z,1850.62
2018-09-14T08:28:48.467Z,1856.25
2018-09-14T08:29:48.450Z,1811.25
2018-09-14T08:30:48.439Z,1918.12
2018-09-14T08:31:48.430Z,2120.62
2018-09-14T08:32:48.437Z,2250.00
2018-09-14T08:33:48.406Z,2300.62
2018-09-14T08:34:48.395Z,2244.38
2018-09-14T08:35:48.382Z,2362.50
2018-09-14T08:36:48.373Z,2874.38
2018-09-14T08:37:48.381Z,3054.38
2018-09-14T08:38:48.346Z,2756.25
2018-09-14T08:39:48.338Z,2373.75
2018-09-14T08:40:48.332Z,2182.50
2018-09-14T08:41:48.316Z,2092.50
2018-09-14T08:42:48.331Z,2019.38
2018-09-14T08:43:48.291Z,1940.62
2018-09-14T08:44:48.277Z,1895.62
2018-09-14T08:45:48.269Z,1873.12
2018-09-14T08:46:48.257Z,1845.00
2018-09-14T08:47:48.293Z,1845.00
2018-09-14T08:48:48.258Z,1828.12
2018-09-14T08:49:48.220Z,1828.12
2018-09-14T08:50:48.216Z,1845.00
2018-09-14T08:51:48.196Z,1884.38
2018-09-14T08:52:48.195Z,1878.75
2018-09-14T08:53:48.200Z,1867.50
2018-09-14T08:54:48.176Z,1884.38
2018-09-14T08:55:48.160Z,1856.25
2018-09-14T08:56:48.139Z,1884.38
2018-09-14T08:57:48.137Z,1935.00
2018-09-14T08:58:48.140Z,1974.38
2018-09-14T08:59:48.113Z,1985.62
2018-09-14T09:00:48.204Z,1980.00
2018-09-14T09:01:48.086Z,1996.88
2018-09-14T09:02:48.080Z,2025.00
2018-09-14T09:03:48.093Z,2002.50
2018-09-14T09:04:48.053Z,2008.12
2018-09-14T09:05:48.043Z,2013.75
2018-09-14T09:06:48.029Z,2025.00
2018-09-14T09:07:48.025Z,2047.50
2018-09-14T09:08:48.036Z,2070.00
2018-09-14T09:09:47.995Z,2064.38
2018-09-14T09:10:47.997Z,2053.12
2018-09-14T09:11:47.970Z,2064.38
2018-09-14T09:12:47.962Z,2070.00
2018-09-14T09:13:47.981Z,2053.12
2018-09-14T09:14:47.951Z,2115.00
2018-09-14T09:15:47.924Z,2070.00
2018-09-14T09:16:47.918Z,2086.88
2018-09-14T09:17:47.979Z,2205.00
2018-09-14T09:18:47.891Z,2075.62
2018-09-14T09:19:47.918Z,1946.25
2018-09-14T09:20:47.874Z,2025.00
2018-09-14T09:21:47.863Z,810.00
2018-09-14T09:22:47.856Z,776.25
2018-09-14T09:23:47.835Z,736.88
2018-09-14T09:24:47.857Z,1676.25
2018-09-14T09:25:47.818Z,1665.00
2018-09-14T09:26:47.808Z,1659.38
2018-09-14T09:27:47.800Z,1085.62
2018-09-14T09:28:47.778Z,1625.62
2018-09-14T09:29:47.776Z,1586.25
2018-09-14T09:30:47.787Z,1445.62
2018-09-14T09:31:47.750Z,1468.12
2018-09-14T09:32:47.735Z,1462.50
2018-09-14T09:33:47.732Z,1456.88
2018-09-14T09:34:47.715Z,1501.88
2018-09-14T09:35:47.731Z,1496.25
2018-09-14T09:36:47.700Z,1507.50
2018-09-14T09:37:47.679Z,1473.75
2018-09-14T09:38:47.675Z,1485.00
2018-09-14T09:39:47.660Z,1462.50
2018-09-14T09:40:47.677Z,1501.88
2018-09-14T09:41:47.638Z,1473.75
2018-09-14T09:42:47.626Z,1400.62
2018-09-14T09:43:47.669Z,1434.38
2018-09-14T09:44:47.611Z,1434.38
2018-09-14T09:45:47.614Z,1400.62
2018-09-14T09:46:47.591Z,1496.25
2018-09-14T09:47:47.570Z,2491.88
2018-09-14T09:48:47.571Z,4224.38
2018-09-14T09:49:47.549Z,3982.50
2018-09-14T09:50:47.577Z,3189.38
2018-09-14T09:51:47.538Z,2784.38
2018-09-14T09:52:47.517Z,877.50
2018-09-14T09:53:47.515Z,703.12
2018-09-14T09:54:47.506Z,703.12
2018-09-14T09:55:47.514Z,663.75
2018-09-14T09:56:47.583Z,675.00
2018-09-14T09:57:47.462Z,697.50
2018-09-14T09:58:47.450Z,753.75
2018-09-14T09:59:47.448Z,821.25
2018-09-14T10:00:47.428Z,916.88
2018-09-14T10:01:47.447Z,2902.50
2018-09-14T10:02:47.411Z,3020.62
2018-09-14T10:03:47.499Z,2953.12
2018-09-14T10:04:47.431Z,1670.62
2018-09-14T10:05:47.374Z,1164.38
2018-09-14T10:06:47.394Z,2728.12
2018-09-14T10:07:47.359Z,3026.25
2018-09-14T10:08:47.341Z,3093.75
2018-09-14T10:09:47.332Z,1507.50
2018-09-14T10:10:47.315Z,1215.00
2018-09-14T10:11:47.312Z,2958.75
2018-09-14T10:12:47.321Z,3234.38
2018-09-14T10:13:47.286Z,3296.25
2018-09-14T10:14:47.282Z,3369.38
2018-09-14T10:15:47.261Z,3476.25
2018-09-14T10:16:47.254Z,3611.25
2018-09-14T10:17:47.265Z,3465.00
2018-09-14T10:18:47.230Z,3268.12
2018-09-14T10:19:47.221Z,2947.50
2018-09-14T10:20:47.314Z,1350.00
2018-09-14T10:21:47.204Z,1327.50
2018-09-14T10:22:47.221Z,1276.88
2018-09-14T10:23:47.174Z,1136.25
2018-09-14T10:24:47.161Z,1040.62
2018-09-14T10:25:47.159Z,894.38
2018-09-14T10:26:47.171Z,832.50
2018-09-14T10:27:47.132Z,815.62
2018-09-14T10:28:47.196Z,838.12
2018-09-14T10:29:47.111Z,900.00
2018-09-14T10:30:47.099Z,871.88
2018-09-14T10:31:47.084Z,871.88
2018-09-14T10:32:47.076Z,888.75
2018-09-14T10:33:47.085Z,888.75
2018-09-14T10:34:47.048Z,900.00
2018-09-14T10:35:47.047Z,939.38
2018-09-14T10:36:47.023Z,1046.25
2018-09-14T10:37:47.022Z,1035.00
2018-09-14T10:38:47.034Z,826.88
2018-09-14T10:39:46.990Z,759.38
2018-09-14T10:40:47.071Z,714.38
2018-09-14T10:41:46.970Z,703.12
2018-09-14T10:42:46.990Z,697.50
2018-09-14T10:43:46.972Z,686.25
2018-09-14T10:44:46.939Z,697.50
2018-09-14T10:45:46.924Z,736.88
2018-09-14T10:46:46.913Z,826.88
2018-09-14T10:47:46.904Z,928.12
2018-09-14T10:48:46.940Z,1006.88
2018-09-14T10:49:46.883Z,1035.00
2018-09-14T10:50:46.872Z,1046.25
2018-09-14T10:51:46.854Z,1125.00
2018-09-14T10:52:46.849Z,1575.00
2018-09-14T10:53:46.857Z,3093.75
2018-09-14T10:54:46.891Z,3138.75
2018-09-14T10:55:46.816Z,3054.38
2018-09-14T10:56:46.801Z,3054.38
2018-09-14T10:57:46.797Z,2705.62
2018-09-14T10:58:46.781Z,3009.38
2018-09-14T10:59:46.783Z,2632.50
2018-09-14T11:00:46.778Z,3256.88
2018-09-14T11:01:46.744Z,3290.62
2018-09-14T11:02:46.732Z,3290.62
2018-09-14T11:03:46.719Z,3217.50
2018-09-14T11:04:46.727Z,3313.12
2018-09-14T11:05:46.701Z,2041.88
2018-09-14T11:06:46.727Z,1164.38
2018-09-14T11:07:46.673Z,1080.00
2018-09-14T11:08:46.660Z,1068.75
2018-09-14T11:09:46.687Z,1507.50
2018-09-14T11:10:46.648Z,3060.00
2018-09-14T11:11:46.625Z,2902.50
2018-09-14T11:12:46.709Z,2806.88
2018-09-14T11:13:46.607Z,1023.75
2018-09-14T11:14:46.599Z,1029.38
2018-09-14T11:15:46.605Z,961.88
2018-09-14T11:16:46.573Z,950.62
2018-09-14T11:17:46.560Z,928.12
2018-09-14T11:18:46.644Z,911.25
2018-09-14T11:19:46.534Z,933.75
2018-09-14T11:20:46.556Z,2205.00
2018-09-14T11:21:46.510Z,3015.00
2018-09-14T11:22:46.509Z,3099.38
2018-09-14T11:23:46.496Z,3099.38
2018-09-14T11:24:46.678Z,3099.38
2018-09-14T11:25:46.494Z,3172.50
2018-09-14T11:26:46.461Z,3234.38
2018-09-14T11:27:46.464Z,3172.50
2018-09-14T11:28:46.439Z,3116.25
2018-09-14T11:29:46.428Z,3251.25
2018-09-14T11:30:46.417Z,3155.62
2018-09-14T11:31:46.426Z,3116.25
2018-09-14T11:32:46.398Z,3228.75
2018-09-14T11:33:46.381Z,3150.00
2018-09-14T11:34:46.375Z,3223.12
2018-09-14T11:35:46.358Z,3240.00
2018-09-14T11:36:46.374Z,3217.50
2018-09-14T11:37:46.365Z,3200.62
2018-09-14T11:38:46.385Z,3144.38
2018-09-14T11:39:46.322Z,3273.75
2018-09-14T11:40:46.301Z,3301.88
2018-09-14T11:41:46.302Z,3144.38
2018-09-14T11:42:46.333Z,3093.75
2018-09-14T11:43:46.275Z,3048.75
2018-09-14T11:44:46.265Z,3037.50
2018-09-14T11:45:46.254Z,3026.25
2018-09-14T11:46:46.241Z,3082.50
2018-09-14T11:47:46.262Z,3183.75
2018-09-14T11:48:46.221Z,3155.62
2018-09-14T11:49:46.218Z,3211.88
2018-09-14T11:50:46.208Z,3133.12
2018-09-14T11:51:46.193Z,3037.50
2018-09-14T11:52:46.210Z,2958.75
2018-09-14T11:53:46.168Z,3127.50
2018-09-14T11:54:46.167Z,3223.12
2018-09-14T11:55:46.149Z,2638.12
2018-09-14T11:56:46.150Z,3088.12
2018-09-14T11:57:46.162Z,3234.38
2018-09-14T11:58:46.118Z,3285.00
2018-09-14T11:59:46.117Z,3296.25
2018-09-14T12:00:46.104Z,3420.00
2018-09-14T12:01:46.097Z,3414.38
2018-09-14T12:02:46.081Z,3375.00
2018-09-14T12:03:46.099Z,3363.75
2018-09-14T12:04:46.060Z,3341.25
2018-09-14T12:05:46.059Z,3290.62
2018-09-14T12:06:46.036Z,1316.25
2018-09-14T12:07:46.035Z,1237.50
2018-09-14T12:08:46.049Z,1226.25
2018-09-14T12:09:46.013Z,2767.50
2018-09-14T12:10:45.998Z,3071.25
2018-09-14T12:11:45.987Z,3076.88
2018-09-14T12:12:45.974Z,3161.25
2018-09-14T12:13:45.999Z,1636.88
2018-09-14T12:14:45.984Z,2958.75
2018-09-14T12:15:45.942Z,2266.88
2018-09-14T12:16:45.934Z,3088.12
2018-09-14T12:17:45.926Z,3071.25
2018-09-14T12:18:45.909Z,2891.25
2018-09-14T12:19:45.926Z,2452.50
2018-09-14T12:20:45.886Z,2638.12
2018-09-14T12:21:45.883Z,2806.88
2018-09-14T12:22:45.868Z,2514.38
2018-09-14T12:23:45.859Z,2868.75
2018-09-14T12:24:45.845Z,3105.00
2018-09-14T12:25:45.859Z,3189.38
2018-09-14T12:26:45.828Z,3093.75
2018-09-14T12:27:45.810Z,3076.88
2018-09-14T12:28:45.808Z,3031.88
2018-09-14T12:29:45.802Z,2992.50
2018-09-14T12:30:45.806Z,3037.50
2018-09-14T12:31:45.772Z,3110.62
2018-09-14T12:32:45.765Z,3161.25
2018-09-14T12:33:45.749Z,2430.00
2018-09-14T12:34:45.753Z,2998.12
2018-09-14T12:35:45.843Z,2958.75
2018-09-14T12:36:45.724Z,2936.25
2018-09-14T12:37:45.704Z,2908.12
2018-09-14T12:38:45.700Z,2941.88
2018-09-14T12:39:45.689Z,2643.75
2018-09-14T12:40:45.681Z,2475.00
2018-09-14T12:41:45.689Z,2761.88
2018-09-14T12:42:45.657Z,2761.88
2018-09-14T12:43:45.646Z,2823.75
2018-09-14T12:44:45.646Z,2891.25
2018-09-14T12:45:45.628Z,2908.12
2018-09-14T12:46:45.647Z,2930.62
2018-09-14T12:47:45.604Z,2874.38
2018-09-14T12:48:45.631Z,2953.12
2018-09-14T12:49:45.581Z,2846.25
2018-09-14T12:50:45.577Z,2801.25
2018-09-14T12:51:45.588Z,2598.75
2018-09-14T12:52:45.551Z,2818.12
2018-09-14T12:53:45.548Z,2739.38
2018-09-14T12:54:45.536Z,2711.25
2018-09-14T12:55:45.518Z,2581.88
2018-09-14T12:56:45.534Z,2520.00
2018-09-14T12:57:45.502Z,2497.50
2018-09-14T12:58:45.489Z,2458.12
2018-09-14T12:59:45.476Z,1141.88
2018-09-14T13:00:45.465Z,1192.50
2018-09-14T13:01:45.488Z,2548.12
2018-09-14T13:02:45.447Z,2677.50
2018-09-14T13:03:45.433Z,2745.00
2018-09-14T13:04:45.429Z,2660.62
2018-09-14T13:05:45.418Z,2525.62
2018-09-14T13:06:45.408Z,2486.25
2018-09-14T13:07:45.410Z,2536.88
2018-09-14T13:08:45.379Z,2497.50
2018-09-14T13:09:45.371Z,2295.00
2018-09-14T13:10:45.361Z,2356.88
2018-09-14T13:11:45.347Z,2390.62
2018-09-14T13:12:45.356Z,2525.62
2018-09-14T13:13:45.335Z,2593.12
2018-09-14T13:14:45.322Z,2520.00
2018-09-14T13:15:45.310Z,2469.38
2018-09-14T13:16:45.295Z,2446.88
2018-09-14T13:17:45.316Z,2435.62
2018-09-14T13:18:45.270Z,945.00
2018-09-14T13:19:45.256Z,1586.25
2018-09-14T13:20:45.255Z,2058.75
2018-09-14T13:21:45.239Z,1507.50
2018-09-14T13:22:45.228Z,1350.00
2018-09-14T13:23:45.238Z,1125.00
2018-09-14T13:24:45.210Z,973.12
2018-09-14T13:25:45.196Z,956.25
2018-09-14T13:26:45.189Z,2244.38
2018-09-14T13:27:45.169Z,2306.25
2018-09-14T13:28:45.188Z,2019.38
2018-09-14T13:29:45.148Z,2115.00
2018-09-14T13:30:45.138Z,1074.38
2018-09-14T13:31:45.131Z,1243.12
2018-09-14T13:32:45.117Z,984.38
2018-09-14T13:33:45.170Z,973.12
2018-09-14T13:34:45.091Z,978.75
2018-09-14T13:35:45.083Z,990.00
2018-09-14T13:36:45.067Z,1063.12
2018-09-14T13:37:45.068Z,2452.50
2018-09-14T13:38:45.047Z,2531.25
2018-09-14T13:39:45.067Z,2480.62
2018-09-14T13:40:45.032Z,2542.50
2018-09-14T13:41:45.013Z,2463.75
2018-09-14T13:42:44.999Z,2193.75
2018-09-14T13:43:44.999Z,2171.25
2018-09-14T13:44:45.015Z,810.00
2018-09-14T13:45:44.969Z,736.88
2018-09-14T13:46:44.955Z,725.62
2018-09-14T13:47:44.946Z,765.00
2018-09-14T13:48:44.939Z,810.00
2018-09-14T13:49:44.947Z,838.12
2018-09-14T13:50:44.919Z,810.00
2018-09-14T13:51:44.902Z,793.12
2018-09-14T13:52:44.952Z,798.75
2018-09-14T13:53:44.876Z,838.12
2018-09-14T13:54:44.888Z,866.25
2018-09-14T13:55:44.862Z,922.50
2018-09-14T13:56:44.845Z,939.38
2018-09-14T13:57:44.832Z,1845.00
2018-09-14T13:58:44.827Z,2261.25
2018-09-14T13:59:44.847Z,1411.88
2018-09-14T14:00:44.805Z,1462.50
2018-09-14T14:01:44.857Z,1029.38
2018-09-14T14:02:44.778Z,1777.50
2018-09-14T14:03:44.762Z,945.00
2018-09-14T14:04:44.752Z,855.00
2018-09-14T14:05:44.768Z,759.38
2018-09-14T14:06:44.734Z,686.25
2018-09-14T14:07:44.718Z,658.12
2018-09-14T14:08:44.729Z,663.75
2018-09-14T14:09:44.764Z,956.25
2018-09-14T14:10:44.713Z,961.88
2018-09-14T14:11:44.669Z,1878.75
2018-09-14T14:12:44.667Z,1861.88
2018-09-14T14:13:44.650Z,2019.38
2018-09-14T14:14:44.642Z,2171.25
2018-09-14T14:15:44.648Z,2227.50
2018-09-14T14:16:44.622Z,2193.75
2018-09-14T14:17:44.724Z,2160.00
2018-09-14T14:18:44.590Z,2131.88
2018-09-14T14:19:44.579Z,2070.00
2018-09-14T14:20:44.600Z,1985.62
2018-09-14T14:21:44.563Z,1923.75
2018-09-14T14:22:44.552Z,1850.62
2018-09-14T14:23:44.533Z,1788.75
2018-09-14T14:24:44.529Z,1710.00
2018-09-14T14:25:44.532Z,708.75
2018-09-14T14:26:44.499Z,877.50
2018-09-14T14:27:44.495Z,1546.88
2018-09-14T14:28:44.476Z,770.62
2018-09-14T14:29:44.474Z,1198.12
2018-09-14T14:30:44.486Z,1507.50
2018-09-14T14:31:44.446Z,1586.25
2018-09-14T14:32:44.464Z,1507.50
2018-09-14T14:33:44.425Z,1406.25
2018-09-14T14:34:44.412Z,1417.50
2018-09-14T14:35:44.396Z,624.38
2018-09-14T14:36:44.415Z,579.38
2018-09-14T14:37:44.372Z,590.62
2018-09-14T14:38:44.369Z,613.12
2018-09-14T14:39:44.354Z,607.50
2018-09-14T14:40:44.337Z,978.75
2018-09-14T14:41:44.383Z,1147.50
2018-09-14T14:42:44.315Z,1108.12
2018-09-14T14:43:44.313Z,1468.12
2018-09-14T14:44:44.292Z,1473.75
2018-09-14T14:45:44.289Z,1614.38
2018-09-14T14:46:44.273Z,1462.50
2018-09-14T14:47:44.285Z,1051.88
2018-09-14T14:48:44.247Z,810.00
2018-09-14T14:49:44.258Z,798.75
2018-09-14T14:50:44.232Z,1035.00
2018-09-14T14:51:44.212Z,916.88
2018-09-14T14:52:44.225Z,939.38
2018-09-14T14:53:44.192Z,1018.12
2018-09-14T14:54:44.183Z,883.12
2018-09-14T14:55:44.197Z,855.00
2018-09-14T14:56:44.155Z,793.12
2018-09-14T14:57:44.174Z,742.50
2018-09-14T14:58:44.134Z,753.75
2018-09-14T14:59:44.127Z,787.50
2018-09-14T15:00:44.119Z,585.00
2018-09-14T15:01:44.105Z,551.25
2018-09-14T15:02:44.115Z,528.75
2018-09-14T15:03:44.083Z,511.88
2018-09-14T15:04:44.063Z,500.62
2018-09-14T15:05:44.060Z,489.38
2018-09-14T15:06:44.045Z,500.62
2018-09-14T15:07:44.031Z,500.62
2018-09-14T15:08:44.042Z,506.25
2018-09-14T15:09:44.006Z,545.62
2018-09-14T15:10:44.025Z,568.12
2018-09-14T15:11:43.980Z,607.50
2018-09-14T15:12:43.976Z,624.38
2018-09-14T15:13:44.039Z,658.12
2018-09-14T15:14:43.944Z,669.38
2018-09-14T15:15:43.940Z,635.62
2018-09-14T15:16:43.927Z,573.75
2018-09-14T15:17:43.912Z,528.75
2018-09-14T15:18:43.927Z,489.38
2018-09-14T15:19:43.884Z,478.12
2018-09-14T15:20:43.876Z,478.12
2018-09-14T15:21:43.867Z,489.38
2018-09-14T15:22:43.853Z,511.88
2018-09-14T15:23:43.867Z,534.38
2018-09-14T15:24:43.829Z,534.38
2018-09-14T15:25:43.822Z,517.50
2018-09-14T15:26:43.813Z,483.75
2018-09-14T15:27:43.796Z,461.25
2018-09-14T15:28:43.806Z,450.00
2018-09-14T15:29:43.780Z,438.75
2018-09-14T15:30:43.762Z,433.12
2018-09-14T15:31:43.758Z,427.50
2018-09-14T15:32:43.739Z,427.50
2018-09-14T15:33:43.760Z,421.88
2018-09-14T15:34:43.719Z,421.88
2018-09-14T15:35:43.707Z,416.25
2018-09-14T15:36:43.698Z,410.62
2018-09-14T15:37:43.684Z,410.62
2018-09-14T15:38:43.674Z,410.62
2018-09-14T15:39:43.681Z,416.25
2018-09-14T15:40:43.650Z,427.50
2018-09-14T15:41:43.635Z,427.50
2018-09-14T15:42:43.623Z,433.12
2018-09-14T15:43:43.729Z,433.12
2018-09-14T15:44:43.633Z,444.38
2018-09-14T15:45:43.591Z,438.75
2018-09-14T15:46:43.579Z,421.88
2018-09-14T15:47:43.565Z,405.00
2018-09-14T15:48:43.550Z,410.62
2018-09-14T15:49:43.547Z,399.38
2018-09-14T15:50:43.556Z,376.88
2018-09-14T15:51:43.514Z,365.62
2018-09-14T15:52:43.505Z,348.75
2018-09-14T15:53:43.496Z,343.12
2018-09-14T15:54:43.487Z,348.75
2018-09-14T15:55:43.488Z,354.38
2018-09-14T15:56:43.458Z,343.12
2018-09-14T15:57:43.469Z,337.50
2018-09-14T15:58:43.437Z,331.88
2018-09-14T15:59:43.426Z,337.50
2018-09-14T16:00:43.431Z,343.12
2018-09-14T16:01:43.405Z,320.62
2018-09-14T16:02:43.393Z,326.25
2018-09-14T16:03:43.371Z,309.38
2018-09-14T16:04:43.370Z,298.12
2018-09-14T16:05:43.381Z,292.50
2018-09-14T16:06:43.342Z,286.88
2018-09-14T16:07:43.328Z,292.50
2018-09-14T16:08:43.320Z,292.50
2018-09-14T16:09:43.306Z,292.50
2018-09-14T16:10:43.296Z,281.25
2018-09-14T16:11:43.306Z,270.00
2018-09-14T16:12:43.273Z,258.75
2018-09-14T16:13:43.292Z,241.88
2018-09-14T16:14:43.252Z,236.25
2018-09-14T16:15:43.231Z,225.00
2018-09-14T16:16:43.259Z,213.75
2018-09-14T16:17:43.209Z,208.12
2018-09-14T16:18:43.197Z,202.50
2018-09-14T16:19:43.195Z,196.88
2018-09-14T16:20:43.174Z,196.88
2018-09-14T16:21:43.172Z,196.88
2018-09-14T16:22:43.182Z,196.88
2018-09-14T16:23:43.139Z,196.88
2018-09-14T16:24:43.138Z,196.88
2018-09-14T16:25:43.117Z,191.25
2018-09-14T16:26:43.107Z,191.25
2018-09-14T16:27:43.133Z,185.62
2018-09-14T16:28:43.084Z,185.62
2018-09-14T16:29:43.076Z,185.62
2018-09-14T16:30:43.058Z,185.62
2018-09-14T16:31:43.112Z,185.62
2018-09-14T16:32:43.035Z,185.62
2018-09-14T16:33:43.055Z,180.00
2018-09-14T16:34:43.022Z,180.00
2018-09-14T16:35:43.000Z,174.38
2018-09-14T16:36:42.998Z,174.38
2018-09-14T16:37:42.980Z,168.75
2018-09-14T16:38:42.993Z,168.75
2018-09-14T16:39:42.962Z,168.75
2018-09-14T16:40:42.942Z,168.75
2018-09-14T16:41:42.941Z,168.75
2018-09-14T16:42:42.924Z,168.75
2018-09-14T16:43:42.913Z,163.12
2018-09-14T16:44:42.924Z,163.12
2018-09-14T16:45:42.885Z,157.50
2018-09-14T16:46:42.875Z,157.50
2018-09-14T16:47:42.867Z,151.88
2018-09-14T16:48:42.856Z,157.50
2018-09-14T16:49:42.858Z,163.12
2018-09-14T16:50:42.830Z,168.75
2018-09-14T16:51:42.847Z,174.38
2018-09-14T16:52:42.808Z,174.38
2018-09-14T16:53:42.792Z,174.38
2018-09-14T16:54:42.813Z,168.75
2018-09-14T16:55:42.778Z,168.75
2018-09-14T16:56:42.763Z,163.12
2018-09-14T16:57:42.742Z,163.12
2018-09-14T16:58:42.743Z,157.50
2018-09-14T16:59:42.719Z,157.50
2018-09-14T17:00:42.734Z,157.50
2018-09-14T17:01:42.760Z,157.50
2018-09-14T17:02:42.711Z,157.50
2018-09-14T17:03:42.678Z,151.88
2018-09-14T17:04:42.665Z,151.88
2018-09-14T17:05:42.678Z,140.62
2018-09-14T17:06:42.640Z,135.00
2018-09-14T17:07:42.634Z,129.38
2018-09-14T17:08:42.617Z,123.75
2018-09-14T17:09:42.608Z,118.12
2018-09-14T17:10:42.614Z,112.50
2018-09-14T17:11:43.585Z,106.88
2018-09-14T17:12:42.567Z,101.25
2018-09-14T17:13:42.562Z,106.88
2018-09-14T17:14:42.542Z,101.25
2018-09-14T17:15:42.554Z,95.62
2018-09-14T17:16:42.524Z,95.62
2018-09-14T17:17:42.508Z,95.62
2018-09-14T17:18:42.540Z,95.62
2018-09-14T17:19:42.534Z,95.62
2018-09-14T17:20:42.498Z,90.00
2018-09-14T17:21:42.459Z,90.00
2018-09-14T17:22:42.446Z,84.38
2018-09-14T17:23:42.445Z,78.75
2018-09-14T17:24:42.519Z,73.12
2018-09-14T17:25:42.441Z,67.50
2018-09-14T17:26:42.430Z,67.50
2018-09-14T17:27:42.438Z,61.88
2018-09-14T17:28:42.384Z,56.25
2018-09-14T17:29:42.364Z,56.25
2018-09-14T17:30:42.386Z,50.62
2018-09-14T17:31:42.340Z,50.62
2018-09-14T17:32:42.335Z,45.00
2018-09-14T17:33:42.316Z,45.00
2018-09-14T17:34:42.310Z,39.38
2018-09-14T17:35:42.352Z,33.75
2018-09-14T17:36:42.303Z,33.75
2018-09-14T17:37:42.277Z,28.12
2018-09-14T17:38:42.259Z,28.12
2018-09-14T17:39:42.251Z,22.50
2018-09-14T17:40:42.244Z,22.50
2018-09-14T17:41:42.253Z,22.50
2018-09-14T17:42:42.211Z,16.88
2018-09-14T17:43:42.206Z,16.88
2018-09-14T17:44:42.267Z,16.88
2018-09-14T17:45:42.178Z,11.25
2018-09-14T17:46:42.163Z,11.25
2018-09-14T17:47:42.178Z,11.25
2018-09-14T17:48:42.140Z,11.25
2018-09-14T17:49:42.137Z,11.25
2018-09-14T17:50:42.125Z,5.62
2018-09-14T17:51:42.104Z,5.62
2018-09-14T17:52:42.134Z,5.62
2018-09-14T17:53:42.087Z,5.62
2018-09-14T17:54:42.115Z,5.62
2018-09-14T17:55:42.110Z,5.62
2018-09-14T17:56:42.047Z,5.62
2018-09-14T17:57:42.237Z,0.00
2018-09-14T17:58:42.054Z,0.00
2018-09-14T17:59:42.012Z,0.00
2018-09-14T18:00:42.004Z,0.00
2018-09-14T18:01:41.996Z,0.00
2018-09-14T18:02:41.980Z,0.00
2018-09-14T18:03:41.986Z,0.00
2018-09-14T18:04:41.955Z,0.00
2018-09-14T18:05:41.948Z,0.00
2018-09-14T18:06:41.936Z,0.00
2018-09-14T18:07:41.922Z,0.00
2018-09-14T18:08:41.935Z,0.00
2018-09-14T18:09:41.961Z,0.00
2018-09-14T18:10:41.890Z,0.00
2018-09-14T18:11:41.870Z,0.00
2018-09-14T18:12:41.868Z,0.00
2018-09-14T18:13:41.869Z,0.00
2018-09-14T18:14:41.842Z,0.00
2018-09-14T18:15:41.825Z,0.00
2018-09-14T18:16:41.817Z,0.00
2018-09-14T18:17:41.802Z,0.00
2018-09-14T18:18:41.808Z,0.00
2018-09-14T18:19:41.778Z,0.00
2018-09-14T18:20:41.768Z,0.00
2018-09-14T18:21:41.755Z,0.00
2018-09-14T18:22:41.747Z,0.00
2018-09-14T18:23:41.759Z,0.00
2018-09-14T18:24:41.720Z,0.00
2018-09-14T18:25:41.705Z,0.00
2018-09-14T18:26:41.701Z,0.00
2018-09-14T18:27:41.767Z,0.00
2018-09-14T18:28:41.722Z,0.00
2018-09-14T18:29:41.716Z,0.00
2018-09-14T18:30:41.658Z,0.00
2018-09-14T18:31:41.635Z,0.00
2018-09-14T18:32:41.631Z,0.00
2018-09-14T18:33:41.610Z,0.00
2018-09-14T18:34:41.623Z,0.00
2018-09-14T18:35:41.650Z,0.00
2018-09-14T18:36:41.580Z,0.00
2018-09-14T18:37:41.564Z,0.00
2018-09-14T18:38:41.550Z,0.00
2018-09-14T18:39:41.565Z,0.00
2018-09-14T18:40:41.528Z,0.00
2018-09-14T18:41:41.525Z,0.00
2018-09-14T18:42:41.513Z,0.00
2018-09-14T18:43:41.491Z,0.00
2018-09-14T18:44:41.507Z,0.00
2018-09-14T18:45:41.475Z,0.00
2018-09-14T18:46:41.465Z,0.00
2018-09-14T18:47:41.461Z,0.00
2018-09-14T18:48:41.433Z,0.00
2018-09-14T18:49:41.467Z,0.00
2018-09-14T18:50:41.439Z,0.00
2018-09-14T18:51:41.447Z,0.00
2018-09-14T18:52:41.485Z,0.00
2018-09-14T18:53:41.617Z,0.00
2018-09-14T18:54:41.388Z,0.00
2018-09-14T18:55:41.363Z,0.00
2018-09-14T18:56:41.348Z,0.00
2018-09-14T18:57:41.329Z,0.00
2018-09-14T18:58:41.317Z,0.00
2018-09-14T18:59:41.338Z,0.00
2018-09-14T19:00:41.295Z,0.00
2018-09-14T19:01:41.292Z,0.00
2018-09-14T19:02:41.266Z,0.00
2018-09-14T19:03:41.265Z,0.00
2018-09-14T19:04:41.243Z,0.00
2018-09-14T19:05:41.261Z,0.00
2018-09-14T19:06:41.220Z,0.00
2018-09-14T19:07:41.214Z,0.00
2018-09-14T19:08:41.195Z,0.00
2018-09-14T19:09:41.192Z,0.00
2018-09-14T19:10:41.204Z,0.00
2018-09-14T19:11:41.160Z,0.00
2018-09-14T19:12:41.156Z,0.00
2018-09-14T19:13:41.135Z,0.00